createdAt,value
2022-07-31T00:00:10.179Z,12.48
2022-07-31T00:01:06.783Z,9.85
2022-07-31T00:02:03.476Z,10.43
2022-07-31T00:03:00.185Z,7.82
2022-07-31T00:03:56.937Z,9.02
2022-07-31T00:04:53.618Z,8.02
2022-07-31T00:05:50.238Z,12.35
2022-07-31T00:06:47.102Z,12.68
2022-07-31T00:07:43.786Z,11.10
2022-07-31T00:08:40.448Z,8.05
2022-07-31T00:09:52.515Z,10.70
2022-07-31T00:10:51.339Z,9.65
2022-07-31T00:11:48.005Z,8.75
2022-07-31T00:12:44.688Z,7.57
2022-07-31T00:13:57.747Z,8.13
2022-07-31T00:14:55.505Z,9.88
2022-07-31T00:15:52.495Z,13.45
2022-07-31T00:16:49.275Z,10.43
2022-07-31T00:17:46.069Z,11.52
2022-07-31T00:18:42.701Z,9.13
2022-07-31T00:19:39.504Z,8.25
2022-07-31T00:20:36.265Z,7.95
2022-07-31T00:21:33.129Z,9.85
2022-07-31T00:22:30.259Z,11.80
2022-07-31T00:23:26.943Z,13.35
2022-07-31T00:24:23.600Z,13.10
2022-07-31T00:25:20.487Z,12.45
2022-07-31T00:26:17.117Z,8.93
2022-07-31T00:27:13.845Z,8.95
2022-07-31T00:28:10.477Z,8.77
2022-07-31T00:29:07.479Z,9.30
2022-07-31T00:30:05.340Z,8.10
2022-07-31T00:31:02.008Z,12.20
2022-07-31T00:31:58.709Z,11.63
2022-07-31T00:32:55.372Z,8.48
2022-07-31T00:33:52.052Z,10.35
2022-07-31T00:34:48.702Z,8.43
2022-07-31T00:35:45.579Z,8.48
2022-07-31T00:36:42.736Z,8.65
2022-07-31T00:37:40.156Z,7.75
2022-07-31T00:38:38.558Z,7.40
2022-07-31T00:39:35.216Z,8.52
2022-07-31T00:40:31.879Z,8.80
2022-07-31T00:41:39.436Z,16.23
2022-07-31T00:42:36.246Z,9.02
2022-07-31T00:43:32.849Z,7.93
2022-07-31T00:44:29.717Z,8.52
2022-07-31T00:45:29.300Z,9.75
2022-07-31T00:46:28.434Z,11.32
2022-07-31T00:47:26.040Z,9.07
2022-07-31T00:48:24.044Z,10.93
2022-07-31T00:49:21.200Z,14.57
2022-07-31T00:50:17.902Z,12.35
2022-07-31T00:51:14.551Z,10.65
2022-07-31T00:52:12.066Z,13.60
2022-07-31T00:53:08.737Z,9.05
2022-07-31T00:54:09.649Z,9.30
2022-07-31T00:55:12.384Z,10.82
2022-07-31T00:56:09.141Z,11.57
2022-07-31T00:57:06.818Z,10.52
2022-07-31T00:58:03.750Z,8.18
2022-07-31T00:59:00.463Z,7.82
2022-07-31T00:59:57.810Z,12.13
2022-07-31T01:00:54.633Z,13.32
2022-07-31T01:01:51.699Z,10.63
2022-07-31T01:02:48.782Z,10.15
2022-07-31T01:03:45.516Z,12.50
2022-07-31T01:04:44.553Z,11.98
2022-07-31T01:05:42.524Z,12.73
2022-07-31T01:06:42.544Z,10.75
2022-07-31T01:07:39.543Z,9.70
2022-07-31T01:08:36.872Z,10.23
2022-07-31T01:09:33.649Z,10.35
2022-07-31T01:10:59.195Z,11.38
2022-07-31T01:12:00.755Z,10.38
2022-07-31T01:13:04.246Z,13.15
2022-07-31T01:14:05.598Z,10.40
2022-07-31T01:15:07.253Z,8.70
2022-07-31T01:16:07.059Z,9.13
2022-07-31T01:17:06.850Z,9.27
2022-07-31T01:18:04.975Z,8.40
2022-07-31T01:19:11.996Z,8.65
2022-07-31T01:20:09.407Z,12.20
2022-07-31T01:21:11.554Z,15.05
2022-07-31T01:22:33.630Z,11.70
2022-07-31T01:23:51.004Z,9.32
2022-07-31T01:25:26.760Z,11.43
2022-07-31T01:26:55.782Z,12.30
2022-07-31T01:28:07.288Z,15.80
2022-07-31T01:29:22.554Z,12.00
2022-07-31T01:30:27.644Z,11.43
2022-07-31T01:31:34.689Z,12.02
2022-07-31T01:32:41.461Z,12.18
2022-07-31T01:33:48.563Z,12.48
2022-07-31T01:35:32.572Z,11.30
2022-07-31T01:36:35.047Z,10.95
2022-07-31T01:37:42.480Z,17.80
2022-07-31T01:38:45.804Z,13.55
2022-07-31T01:39:46.939Z,13.30
2022-07-31T01:40:50.635Z,12.02
2022-07-31T01:41:49.924Z,12.23
2022-07-31T01:42:51.996Z,12.88
2022-07-31T01:43:52.933Z,9.95
2022-07-31T01:44:54.682Z,11.23
2022-07-31T01:45:54.938Z,9.20
2022-07-31T01:46:53.282Z,10.32
2022-07-31T01:47:51.149Z,8.38
2022-07-31T01:48:49.949Z,10.80
2022-07-31T01:49:48.867Z,6.57
2022-07-31T01:50:48.604Z,6.18
2022-07-31T01:51:46.469Z,14.77
2022-07-31T01:52:43.884Z,10.07
2022-07-31T01:53:43.729Z,10.13
2022-07-31T01:54:40.935Z,8.43
2022-07-31T01:55:56.364Z,9.77
2022-07-31T01:56:59.597Z,11.30
2022-07-31T01:57:56.860Z,6.93
2022-07-31T01:58:55.366Z,8.82
2022-07-31T01:59:56.419Z,9.52
2022-07-31T02:00:58.470Z,8.77
2022-07-31T02:01:57.840Z,10.00
2022-07-31T02:02:57.121Z,10.60
2022-07-31T02:04:00.584Z,15.82
2022-07-31T02:04:58.737Z,9.52
2022-07-31T02:05:56.336Z,10.23
2022-07-31T02:06:53.437Z,13.25
2022-07-31T02:07:52.224Z,9.75
2022-07-31T02:08:51.873Z,9.77
2022-07-31T02:09:57.802Z,13.13
2022-07-31T02:10:57.313Z,10.98
2022-07-31T02:11:55.129Z,8.27
2022-07-31T02:12:51.944Z,11.07
2022-07-31T02:13:49.840Z,12.48
2022-07-31T02:14:47.175Z,9.05
2022-07-31T02:15:45.112Z,7.40
2022-07-31T02:16:41.864Z,8.15
2022-07-31T02:17:39.729Z,7.68
2022-07-31T02:18:37.246Z,7.20
2022-07-31T02:19:36.276Z,6.57
2022-07-31T02:20:33.321Z,8.23
2022-07-31T02:21:30.069Z,9.90
2022-07-31T02:22:27.244Z,13.48
2022-07-31T02:23:24.048Z,8.88
2022-07-31T02:24:20.672Z,12.32
2022-07-31T02:25:17.646Z,10.75
2022-07-31T02:26:16.941Z,8.35
2022-07-31T02:27:55.451Z,6.93
2022-07-31T02:28:32.897Z,6.90
2022-07-31T02:29:33.083Z,7.93
2022-07-31T02:30:39.697Z,8.52
2022-07-31T02:31:38.411Z,6.85
2022-07-31T02:32:36.050Z,11.68
2022-07-31T02:33:33.099Z,10.60
2022-07-31T02:34:31.595Z,6.15
2022-07-31T02:35:29.034Z,10.40
2022-07-31T02:36:27.597Z,10.82
2022-07-31T02:37:25.847Z,10.57
2022-07-31T02:38:26.383Z,8.80
2022-07-31T02:39:30.338Z,6.55
2022-07-31T02:40:27.716Z,7.15
2022-07-31T02:41:25.638Z,8.63
2022-07-31T02:42:23.030Z,9.95
2022-07-31T02:43:20.561Z,11.13
2022-07-31T02:44:18.611Z,14.25
2022-07-31T02:45:24.726Z,12.02
2022-07-31T02:46:23.124Z,12.02
2022-07-31T02:47:20.710Z,13.23
2022-07-31T02:48:18.011Z,10.20
2022-07-31T02:49:15.722Z,11.15
2022-07-31T02:50:13.177Z,12.30
2022-07-31T02:51:14.992Z,12.65
2022-07-31T02:52:13.204Z,7.90
2022-07-31T02:53:10.230Z,8.68
2022-07-31T02:54:07.132Z,17.23
2022-07-31T02:55:04.932Z,12.55
2022-07-31T02:56:04.426Z,12.75
2022-07-31T02:57:02.652Z,15.38
2022-07-31T02:57:59.311Z,13.07
2022-07-31T02:58:56.048Z,11.38
2022-07-31T02:59:52.655Z,12.52
2022-07-31T03:01:02.361Z,11.13
2022-07-31T03:01:59.413Z,15.27
2022-07-31T03:02:56.083Z,12.43
2022-07-31T03:03:53.330Z,10.77
2022-07-31T03:04:49.944Z,10.75
2022-07-31T03:05:46.563Z,16.73
2022-07-31T03:06:43.534Z,9.52
2022-07-31T03:07:40.160Z,9.75
2022-07-31T03:08:36.842Z,9.25
2022-07-31T03:09:33.565Z,11.07
2022-07-31T03:10:30.234Z,13.65
2022-07-31T03:11:27.172Z,11.32
2022-07-31T03:12:25.244Z,13.60
2022-07-31T03:13:25.071Z,8.60
2022-07-31T03:14:23.956Z,9.82
2022-07-31T03:15:23.718Z,15.73
2022-07-31T03:16:22.116Z,17.70
2022-07-31T03:17:19.744Z,18.65
2022-07-31T03:18:18.712Z,11.55
2022-07-31T03:19:16.115Z,13.18
2022-07-31T03:20:14.973Z,11.50
2022-07-31T03:21:12.341Z,15.52
2022-07-31T03:22:14.945Z,12.75
2022-07-31T03:23:13.387Z,12.85
2022-07-31T03:24:12.005Z,14.98
2022-07-31T03:25:09.968Z,12.30
2022-07-31T03:26:07.343Z,13.80
2022-07-31T03:27:04.112Z,12.80
2022-07-31T03:28:00.831Z,15.48
2022-07-31T03:29:00.387Z,16.27
2022-07-31T03:29:57.087Z,18.25
2022-07-31T03:30:56.467Z,13.10
2022-07-31T03:31:53.489Z,14.88
2022-07-31T03:32:50.230Z,15.25
2022-07-31T03:33:47.048Z,20.05
2022-07-31T03:34:43.676Z,18.85
2022-07-31T03:35:44.481Z,17.02
2022-07-31T03:36:41.315Z,13.10
2022-07-31T03:37:38.177Z,14.45
2022-07-31T03:38:39.465Z,14.77
2022-07-31T03:39:40.186Z,13.82
2022-07-31T03:40:36.789Z,14.27
2022-07-31T03:41:33.956Z,27.23
2022-07-31T03:42:31.700Z,17.40
2022-07-31T03:43:44.091Z,16.08
2022-07-31T03:44:45.625Z,14.50
2022-07-31T03:45:44.648Z,17.92
2022-07-31T03:46:41.391Z,18.17
2022-07-31T03:47:38.350Z,15.57
2022-07-31T03:48:35.187Z,17.75
2022-07-31T03:49:33.188Z,16.35
2022-07-31T03:50:30.120Z,17.75
2022-07-31T03:51:26.998Z,14.02
2022-07-31T03:52:24.332Z,17.30
2022-07-31T03:53:22.486Z,13.27
2022-07-31T03:54:19.713Z,18.08
2022-07-31T03:55:17.278Z,15.52
2022-07-31T03:56:15.680Z,14.63
2022-07-31T03:57:12.780Z,17.55
2022-07-31T03:58:10.241Z,15.45
2022-07-31T03:59:06.874Z,16.10
2022-07-31T04:00:05.491Z,19.30
2022-07-31T04:01:05.173Z,13.85
2022-07-31T04:02:10.315Z,15.60
2022-07-31T04:03:10.240Z,13.23
2022-07-31T04:04:06.889Z,12.50
2022-07-31T04:05:08.190Z,15.98
2022-07-31T04:06:07.678Z,15.93
2022-07-31T04:07:05.684Z,16.40
2022-07-31T04:08:02.414Z,12.30
2022-07-31T04:09:01.612Z,14.93
2022-07-31T04:10:15.461Z,16.90
2022-07-31T04:11:12.848Z,14.68
2022-07-31T04:12:10.119Z,17.63
2022-07-31T04:13:06.773Z,15.68
2022-07-31T04:14:03.394Z,17.73
2022-07-31T04:15:00.055Z,17.85
2022-07-31T04:15:56.658Z,14.73
2022-07-31T04:16:53.307Z,19.25
2022-07-31T04:17:50.029Z,18.80
2022-07-31T04:18:50.959Z,16.92
2022-07-31T04:19:49.625Z,14.40
2022-07-31T04:20:46.273Z,14.55
2022-07-31T04:21:42.876Z,15.68
2022-07-31T04:22:39.677Z,12.35
2022-07-31T04:23:37.276Z,12.68
2022-07-31T04:24:34.003Z,16.75
2022-07-31T04:25:30.744Z,11.20
2022-07-31T04:26:29.050Z,15.32
2022-07-31T04:27:25.964Z,12.70
2022-07-31T04:28:22.679Z,10.23
2022-07-31T04:29:19.304Z,12.25
2022-07-31T04:30:15.959Z,11.57
2022-07-31T04:31:13.151Z,14.05
2022-07-31T04:32:09.784Z,11.65
2022-07-31T04:33:06.484Z,12.50
2022-07-31T04:34:03.569Z,14.15
2022-07-31T04:35:00.196Z,11.35
2022-07-31T04:35:56.972Z,15.18
2022-07-31T04:36:53.612Z,13.73
2022-07-31T04:37:50.251Z,15.70
2022-07-31T04:38:46.853Z,15.40
2022-07-31T04:39:43.911Z,12.88
2022-07-31T04:40:40.559Z,18.75
2022-07-31T04:41:37.353Z,13.90
2022-07-31T04:42:34.269Z,11.05
2022-07-31T04:43:30.878Z,15.30
2022-07-31T04:44:27.588Z,11.30
2022-07-31T04:45:24.234Z,13.75
2022-07-31T04:46:21.351Z,11.52
2022-07-31T04:47:18.162Z,11.77
2022-07-31T04:48:14.754Z,10.70
2022-07-31T04:49:15.248Z,13.98
2022-07-31T04:50:12.139Z,9.55
2022-07-31T04:51:09.015Z,9.60
2022-07-31T04:52:10.162Z,11.68
2022-07-31T04:53:06.816Z,13.57
2022-07-31T04:54:03.426Z,10.75
2022-07-31T04:55:00.071Z,13.38
2022-07-31T04:56:15.767Z,10.68
2022-07-31T04:57:12.497Z,12.20
2022-07-31T04:58:09.194Z,11.55
2022-07-31T04:59:07.740Z,11.95
2022-07-31T05:00:06.006Z,10.43
2022-07-31T05:01:02.997Z,12.35
2022-07-31T05:01:59.742Z,14.95
2022-07-31T05:02:56.459Z,11.00
2022-07-31T05:03:54.714Z,9.88
2022-07-31T05:04:52.565Z,10.10
2022-07-31T05:05:53.884Z,12.13
2022-07-31T05:06:52.014Z,13.93
2022-07-31T05:07:48.815Z,11.70
2022-07-31T05:08:45.410Z,13.00
2022-07-31T05:09:42.155Z,11.98
2022-07-31T05:10:57.230Z,15.70
2022-07-31T05:11:53.911Z,11.68
2022-07-31T05:12:50.583Z,9.25
2022-07-31T05:13:47.255Z,15.30
2022-07-31T05:14:43.922Z,12.57
2022-07-31T05:15:40.592Z,13.23
2022-07-31T05:16:37.799Z,14.23
2022-07-31T05:17:34.455Z,12.35
2022-07-31T05:18:32.020Z,10.27
2022-07-31T05:19:30.405Z,10.55
2022-07-31T05:20:27.053Z,9.32
2022-07-31T05:21:24.600Z,10.55
2022-07-31T05:22:21.240Z,9.02
2022-07-31T05:23:17.864Z,11.27
2022-07-31T05:24:14.537Z,8.55
2022-07-31T05:25:11.177Z,8.48
2022-07-31T05:26:08.531Z,7.78
2022-07-31T05:27:05.672Z,7.68
2022-07-31T05:28:02.266Z,6.97
2022-07-31T05:29:00.076Z,8.95
2022-07-31T05:29:57.028Z,8.63
2022-07-31T05:30:53.633Z,8.82
2022-07-31T05:32:00.445Z,8.77
2022-07-31T05:32:58.578Z,8.75
2022-07-31T05:33:55.486Z,7.75
2022-07-31T05:34:52.174Z,9.18
2022-07-31T05:35:49.021Z,16.95
2022-07-31T05:36:45.704Z,10.30
2022-07-31T05:37:42.471Z,9.48
2022-07-31T05:38:39.199Z,14.13
2022-07-31T05:39:36.074Z,8.82
2022-07-31T05:40:32.715Z,8.55
2022-07-31T05:41:30.852Z,7.95
2022-07-31T05:42:27.858Z,13.90
2022-07-31T05:43:24.580Z,8.93
2022-07-31T05:44:21.184Z,13.38
2022-07-31T05:45:17.944Z,10.30
2022-07-31T05:46:16.771Z,9.35
2022-07-31T05:47:13.436Z,8.18
2022-07-31T05:48:10.205Z,7.60
2022-07-31T05:49:06.903Z,7.57
2022-07-31T05:50:05.213Z,11.50
2022-07-31T05:51:05.415Z,7.60
2022-07-31T05:52:02.896Z,7.18
2022-07-31T05:52:59.846Z,7.35
2022-07-31T05:53:56.791Z,9.50
2022-07-31T05:54:53.444Z,11.82
2022-07-31T05:55:51.294Z,7.85
2022-07-31T05:56:48.014Z,10.38
2022-07-31T05:57:44.642Z,10.93
2022-07-31T05:58:41.254Z,10.98
2022-07-31T05:59:39.028Z,8.77
2022-07-31T06:00:36.103Z,9.80
2022-07-31T06:01:32.830Z,9.30
2022-07-31T06:02:29.501Z,10.55
2022-07-31T06:03:29.921Z,10.18
2022-07-31T06:04:27.009Z,10.93
2022-07-31T06:05:23.673Z,9.02
2022-07-31T06:06:20.284Z,7.80
2022-07-31T06:07:16.902Z,10.32
2022-07-31T06:08:13.569Z,13.98
2022-07-31T06:09:10.237Z,10.75
2022-07-31T06:10:07.206Z,8.43
2022-07-31T06:11:04.149Z,8.00
2022-07-31T06:12:01.128Z,10.73
2022-07-31T06:12:58.155Z,9.85
2022-07-31T06:13:54.776Z,10.13
2022-07-31T06:14:51.566Z,11.52
2022-07-31T06:15:49.361Z,8.93
2022-07-31T06:16:47.791Z,10.25
2022-07-31T06:17:45.146Z,10.40
2022-07-31T06:18:42.655Z,8.60
2022-07-31T06:19:39.441Z,9.90
2022-07-31T06:20:37.239Z,10.77
2022-07-31T06:21:35.902Z,13.90
2022-07-31T06:22:32.782Z,8.65
2022-07-31T06:23:32.136Z,10.77
2022-07-31T06:24:29.138Z,9.98
2022-07-31T06:25:28.754Z,8.95
2022-07-31T06:26:28.761Z,9.10
2022-07-31T06:27:33.497Z,12.38
2022-07-31T06:28:42.550Z,9.75
2022-07-31T06:29:45.748Z,11.73
2022-07-31T06:30:42.972Z,15.85
2022-07-31T06:31:39.923Z,10.23
2022-07-31T06:32:36.862Z,9.90
2022-07-31T06:33:37.591Z,12.20
2022-07-31T06:34:34.957Z,13.30
2022-07-31T06:35:32.085Z,10.27
2022-07-31T06:36:28.687Z,15.10
2022-07-31T06:37:26.169Z,11.48
2022-07-31T06:38:24.452Z,12.27
2022-07-31T06:39:21.143Z,12.10
2022-07-31T06:40:17.872Z,14.23
2022-07-31T06:41:33.321Z,12.23
2022-07-31T06:42:29.947Z,13.05
2022-07-31T06:43:26.536Z,13.75
2022-07-31T06:44:23.738Z,12.73
2022-07-31T06:45:41.638Z,13.88
2022-07-31T06:46:37.509Z,13.00
2022-07-31T06:47:34.178Z,14.10
2022-07-31T06:48:30.840Z,13.05
2022-07-31T06:49:27.568Z,12.38
2022-07-31T06:50:24.264Z,13.02
2022-07-31T06:51:30.735Z,10.75
2022-07-31T06:52:28.413Z,10.48
2022-07-31T06:53:26.803Z,13.65
2022-07-31T06:54:26.805Z,11.40
2022-07-31T06:55:23.864Z,11.05
2022-07-31T06:56:20.492Z,12.38
2022-07-31T06:57:17.205Z,10.32
2022-07-31T06:58:13.813Z,10.48
2022-07-31T06:59:10.923Z,11.30
2022-07-31T07:00:19.720Z,10.00
2022-07-31T07:01:17.779Z,9.27
2022-07-31T07:02:14.516Z,9.23
2022-07-31T07:03:11.194Z,9.52
2022-07-31T07:04:07.847Z,9.75
2022-07-31T07:05:06.950Z,9.27
2022-07-31T07:06:04.138Z,9.60
2022-07-31T07:07:00.826Z,12.60
2022-07-31T07:07:57.479Z,9.93
2022-07-31T07:08:54.508Z,10.52
2022-07-31T07:09:51.150Z,9.10
2022-07-31T07:10:47.760Z,10.52
2022-07-31T07:11:44.748Z,8.68
2022-07-31T07:12:41.394Z,9.52
2022-07-31T07:13:45.829Z,9.40
2022-07-31T07:14:43.617Z,9.07
2022-07-31T07:15:40.243Z,10.63
2022-07-31T07:16:36.863Z,7.53
2022-07-31T07:17:33.502Z,7.55
2022-07-31T07:18:30.263Z,7.85
2022-07-31T07:19:27.409Z,8.95
2022-07-31T07:20:24.127Z,7.88
2022-07-31T07:21:20.818Z,7.25
2022-07-31T07:22:17.782Z,9.77
2022-07-31T07:23:27.847Z,8.02
2022-07-31T07:24:24.731Z,8.23
2022-07-31T07:25:21.505Z,8.38
2022-07-31T07:26:18.919Z,7.75
2022-07-31T07:27:15.700Z,9.32
2022-07-31T07:28:29.246Z,10.02
2022-07-31T07:29:27.878Z,10.05
2022-07-31T07:30:28.426Z,7.78
2022-07-31T07:31:25.365Z,8.90
2022-07-31T07:32:22.002Z,9.55
2022-07-31T07:33:39.982Z,11.40
2022-07-31T07:34:35.333Z,9.00
2022-07-31T07:35:34.250Z,10.80
2022-07-31T07:36:31.000Z,9.40
2022-07-31T07:37:28.735Z,9.43
2022-07-31T07:38:25.375Z,9.35
2022-07-31T07:39:23.701Z,10.50
2022-07-31T07:40:21.290Z,11.85
2022-07-31T07:41:18.427Z,10.07
2022-07-31T07:42:15.295Z,13.20
2022-07-31T07:43:11.950Z,10.60
2022-07-31T07:44:09.456Z,10.68
2022-07-31T07:45:08.254Z,9.60
2022-07-31T07:46:05.186Z,10.40
2022-07-31T07:47:01.775Z,9.77
2022-07-31T07:48:06.530Z,9.82
2022-07-31T07:49:04.693Z,8.93
2022-07-31T07:50:01.359Z,9.55
2022-07-31T07:50:58.054Z,10.18
2022-07-31T07:52:00.130Z,10.80
2022-07-31T07:52:57.363Z,10.32
2022-07-31T07:53:54.076Z,10.43
2022-07-31T07:54:50.747Z,10.00
2022-07-31T07:55:47.454Z,9.02
2022-07-31T07:56:45.373Z,8.68
2022-07-31T07:57:45.059Z,9.88
2022-07-31T07:58:41.682Z,9.35
2022-07-31T07:59:38.345Z,9.43
2022-07-31T08:00:35.167Z,9.60
2022-07-31T08:01:31.874Z,8.32
2022-07-31T08:02:28.537Z,8.00
2022-07-31T08:03:48.619Z,8.75
2022-07-31T08:04:47.202Z,8.05
2022-07-31T08:05:44.162Z,7.72
2022-07-31T08:06:40.831Z,7.68
2022-07-31T08:07:42.154Z,7.72
2022-07-31T08:08:39.687Z,7.22
2022-07-31T08:09:36.928Z,8.60
2022-07-31T08:10:33.720Z,7.93
2022-07-31T08:11:30.368Z,8.13
2022-07-31T08:12:27.962Z,8.55
2022-07-31T08:13:24.718Z,6.93
2022-07-31T08:14:21.379Z,8.07
2022-07-31T08:15:18.002Z,6.85
2022-07-31T08:16:14.667Z,7.22
2022-07-31T08:17:12.163Z,7.07
2022-07-31T08:18:09.884Z,7.07
2022-07-31T08:19:06.553Z,6.88
2022-07-31T08:20:04.533Z,6.70
2022-07-31T08:21:01.270Z,6.78
2022-07-31T08:21:57.956Z,6.63
2022-07-31T08:22:54.630Z,6.68
2022-07-31T08:23:52.792Z,6.70
2022-07-31T08:24:49.487Z,7.55
2022-07-31T08:25:46.139Z,7.05
2022-07-31T08:27:02.744Z,6.97
2022-07-31T08:28:11.127Z,7.35
2022-07-31T08:29:11.503Z,8.27
2022-07-31T08:30:09.775Z,7.65
2022-07-31T08:31:06.592Z,7.53
2022-07-31T08:32:07.142Z,7.68
2022-07-31T08:33:04.194Z,7.43
2022-07-31T08:34:00.833Z,9.00
2022-07-31T08:34:57.753Z,7.25
2022-07-31T08:35:54.483Z,7.28
2022-07-31T08:36:51.133Z,8.27
2022-07-31T08:37:52.441Z,8.63
2022-07-31T08:39:00.614Z,10.65
2022-07-31T08:39:57.373Z,10.05
2022-07-31T08:40:54.109Z,9.52
2022-07-31T08:41:50.888Z,10.93
2022-07-31T08:42:47.606Z,10.85
2022-07-31T08:44:01.830Z,10.57
2022-07-31T08:45:00.870Z,9.35
2022-07-31T08:46:02.585Z,9.55
2022-07-31T08:47:00.188Z,11.85
2022-07-31T08:47:57.657Z,8.85
2022-07-31T08:48:57.207Z,10.23
2022-07-31T08:49:56.263Z,9.80
2022-07-31T08:50:54.443Z,8.52
2022-07-31T08:51:52.795Z,8.43
2022-07-31T08:52:50.385Z,9.10
2022-07-31T08:53:53.214Z,9.05
2022-07-31T08:54:51.369Z,7.53
2022-07-31T08:55:56.230Z,8.57
2022-07-31T08:56:54.308Z,8.52
2022-07-31T08:57:51.801Z,8.75
2022-07-31T08:58:48.565Z,8.70
2022-07-31T08:59:45.682Z,8.85
2022-07-31T09:00:43.258Z,11.30
2022-07-31T09:01:40.068Z,8.70
2022-07-31T09:02:40.358Z,9.10
2022-07-31T09:03:37.066Z,8.25
2022-07-31T09:04:34.239Z,7.88
2022-07-31T09:05:42.706Z,8.70
2022-07-31T09:06:39.543Z,7.95
2022-07-31T09:07:36.241Z,10.20
2022-07-31T09:08:33.971Z,9.13
2022-07-31T09:09:51.750Z,7.65
2022-07-31T09:10:50.225Z,7.90
2022-07-31T09:11:48.988Z,7.43
2022-07-31T09:12:45.668Z,8.45
2022-07-31T09:14:02.850Z,8.88
2022-07-31T09:14:59.939Z,7.32
2022-07-31T09:16:00.318Z,8.20
2022-07-31T09:16:57.316Z,8.63
2022-07-31T09:17:55.114Z,8.65
2022-07-31T09:19:03.476Z,7.97
2022-07-31T09:20:22.142Z,9.90
2022-07-31T09:21:18.786Z,10.27
2022-07-31T09:22:27.370Z,7.95
2022-07-31T09:23:25.610Z,8.50
2022-07-31T09:24:28.493Z,7.50
2022-07-31T09:25:25.125Z,8.75
2022-07-31T09:26:33.428Z,7.50
2022-07-31T09:27:30.057Z,6.93
2022-07-31T09:28:38.493Z,7.60
2022-07-31T09:29:39.270Z,7.90
2022-07-31T09:30:35.920Z,9.27
2022-07-31T09:31:52.519Z,7.72
2022-07-31T09:32:49.185Z,7.78
2022-07-31T09:33:47.133Z,8.07
2022-07-31T09:34:45.475Z,7.82
2022-07-31T09:35:50.041Z,7.45
2022-07-31T09:36:46.845Z,8.10
2022-07-31T09:37:47.708Z,6.22
2022-07-31T09:38:44.597Z,7.90
2022-07-31T09:39:51.876Z,6.00
2022-07-31T09:40:55.355Z,7.00
2022-07-31T09:42:01.079Z,7.55
2022-07-31T09:43:17.443Z,8.02
2022-07-31T09:44:14.145Z,6.60
2022-07-31T09:45:22.145Z,7.82
2022-07-31T09:46:18.833Z,8.68
2022-07-31T09:47:29.211Z,9.88
2022-07-31T09:48:28.613Z,8.15
2022-07-31T09:49:33.046Z,8.38
2022-07-31T09:50:29.711Z,10.38
2022-07-31T09:51:26.473Z,10.43
2022-07-31T09:52:23.201Z,9.90
2022-07-31T09:53:19.899Z,11.82
2022-07-31T09:54:26.474Z,10.65
2022-07-31T09:55:23.165Z,10.90
2022-07-31T09:56:33.771Z,11.43
2022-07-31T09:57:30.524Z,11.77
2022-07-31T09:58:27.187Z,11.93
2022-07-31T09:59:24.272Z,13.93
2022-07-31T10:00:21.482Z,13.52
2022-07-31T10:01:19.117Z,12.80
2022-07-31T10:02:18.587Z,14.02
2022-07-31T10:03:18.839Z,14.95
2022-07-31T10:04:20.251Z,13.55
2022-07-31T10:05:18.160Z,17.35
2022-07-31T10:06:16.690Z,12.77
2022-07-31T10:07:31.420Z,13.57
2022-07-31T10:08:29.337Z,16.25
2022-07-31T10:09:27.471Z,13.68
2022-07-31T10:10:24.421Z,15.07
2022-07-31T10:11:24.864Z,14.93
2022-07-31T10:12:23.828Z,13.82
2022-07-31T10:13:21.119Z,12.75
2022-07-31T10:14:30.991Z,12.77
2022-07-31T10:15:28.887Z,13.63
2022-07-31T10:16:29.262Z,14.27
2022-07-31T10:17:35.042Z,14.02
2022-07-31T10:18:41.558Z,15.73
2022-07-31T10:19:46.231Z,13.45
2022-07-31T10:20:52.619Z,15.57
2022-07-31T10:21:59.774Z,15.40
2022-07-31T10:23:05.505Z,13.90
2022-07-31T10:24:04.287Z,12.93
2022-07-31T10:25:02.645Z,15.07
2022-07-31T10:26:01.618Z,12.38
2022-07-31T10:27:10.690Z,15.02
2022-07-31T10:28:07.711Z,14.40
2022-07-31T10:29:04.875Z,16.58
2022-07-31T10:30:01.946Z,13.02
2022-07-31T10:30:58.861Z,13.27
2022-07-31T10:31:55.699Z,15.07
2022-07-31T10:32:52.502Z,15.10
2022-07-31T10:33:49.968Z,17.75
2022-07-31T10:34:47.024Z,14.82
2022-07-31T10:35:57.392Z,14.55
2022-07-31T10:37:03.126Z,13.27
2022-07-31T10:38:25.657Z,13.60
2022-07-31T10:39:38.860Z,14.70
2022-07-31T10:41:31.943Z,14.40
2022-07-31T10:43:06.046Z,16.85
2022-07-31T10:44:38.544Z,14.80
2022-07-31T10:45:50.157Z,13.73
2022-07-31T10:46:46.916Z,12.75
2022-07-31T10:48:00.969Z,13.27
2022-07-31T10:48:58.346Z,12.63
2022-07-31T10:49:55.626Z,11.48
2022-07-31T10:51:07.493Z,11.68
2022-07-31T10:52:04.315Z,13.48
2022-07-31T10:53:17.684Z,11.77
2022-07-31T10:54:15.626Z,13.18
2022-07-31T10:55:22.729Z,12.23
2022-07-31T10:56:19.433Z,11.45
2022-07-31T10:57:23.638Z,10.27
2022-07-31T10:58:20.411Z,10.68
2022-07-31T10:59:28.579Z,9.73
2022-07-31T11:00:29.926Z,10.77
2022-07-31T11:01:26.957Z,10.97
2022-07-31T11:02:34.821Z,10.55
2022-07-31T11:03:44.336Z,9.07
2022-07-31T11:04:41.011Z,9.27
2022-07-31T11:06:01.746Z,8.38
2022-07-31T11:06:54.680Z,8.75
2022-07-31T11:08:03.501Z,9.73
2022-07-31T11:09:00.169Z,8.48
2022-07-31T11:10:08.997Z,13.63
2022-07-31T11:11:05.649Z,7.70
2022-07-31T11:12:02.352Z,7.88
2022-07-31T11:13:00.346Z,8.18
2022-07-31T11:13:57.980Z,8.77
2022-07-31T11:14:54.637Z,8.82
2022-07-31T11:15:53.212Z,8.55
2022-07-31T11:16:51.355Z,6.90
2022-07-31T11:18:21.268Z,7.07
2022-07-31T11:19:06.876Z,9.70
2022-07-31T11:20:03.831Z,7.07
2022-07-31T11:21:13.570Z,7.95
2022-07-31T11:22:31.502Z,7.97
2022-07-31T11:23:31.215Z,8.52
2022-07-31T11:24:27.889Z,7.90
2022-07-31T11:25:25.882Z,8.45
2022-07-31T11:26:32.860Z,7.78
2022-07-31T11:27:33.333Z,7.93
2022-07-31T11:28:30.146Z,9.75
2022-07-31T11:30:00.934Z,8.57
2022-07-31T11:30:57.419Z,6.68
2022-07-31T11:31:54.091Z,7.55
2022-07-31T11:32:52.919Z,6.32
2022-07-31T11:33:49.827Z,8.18
2022-07-31T11:34:51.474Z,7.10
2022-07-31T11:35:49.004Z,8.88
2022-07-31T11:36:50.735Z,6.38
2022-07-31T11:37:58.144Z,6.90
2022-07-31T11:39:00.661Z,8.07
2022-07-31T11:40:01.885Z,7.40
2022-07-31T11:40:59.599Z,6.32
2022-07-31T11:41:57.105Z,5.97
2022-07-31T11:43:23.266Z,7.65
2022-07-31T11:44:10.588Z,7.68
2022-07-31T11:45:12.346Z,6.18
2022-07-31T11:46:09.326Z,6.13
2022-07-31T11:48:10.062Z,6.60
2022-07-31T11:48:27.963Z,6.88
2022-07-31T11:49:48.097Z,6.07
2022-07-31T11:50:42.789Z,5.82
2022-07-31T11:51:39.531Z,5.65
2022-07-31T11:52:37.855Z,7.18
2022-07-31T11:53:44.026Z,5.95
2022-07-31T11:54:40.717Z,6.13
2022-07-31T11:55:53.275Z,6.13
2022-07-31T11:56:55.693Z,5.78
2022-07-31T11:58:53.751Z,5.30
2022-07-31T11:59:50.769Z,4.85
2022-07-31T12:00:51.575Z,5.45
2022-07-31T12:01:48.313Z,5.30
2022-07-31T12:02:47.403Z,4.72
2022-07-31T12:03:46.007Z,4.78
2022-07-31T12:04:42.769Z,5.30
2022-07-31T12:05:49.856Z,4.70
2022-07-31T12:06:46.541Z,4.88
2022-07-31T12:07:45.149Z,4.53
2022-07-31T12:08:41.921Z,5.40
2022-07-31T12:10:01.204Z,5.30
2022-07-31T12:10:57.794Z,6.45
2022-07-31T12:11:55.295Z,5.72
2022-07-31T12:12:52.039Z,7.75
2022-07-31T12:13:49.676Z,5.85
2022-07-31T12:14:46.311Z,5.78
2022-07-31T12:16:10.849Z,6.20
2022-07-31T12:17:07.901Z,8.23
2022-07-31T12:18:05.496Z,5.90
2022-07-31T12:19:02.145Z,8.88
2022-07-31T12:20:07.004Z,5.90
2022-07-31T12:21:04.881Z,6.50
2022-07-31T12:22:13.099Z,6.63
2022-07-31T12:23:41.207Z,6.35
2022-07-31T12:24:27.487Z,6.63
2022-07-31T12:25:24.194Z,6.07
2022-07-31T12:26:25.185Z,6.90
2022-07-31T12:27:22.137Z,6.15
2022-07-31T12:28:19.130Z,6.28
2022-07-31T12:29:15.782Z,6.53
2022-07-31T12:30:17.445Z,7.03
2022-07-31T12:31:14.180Z,7.00
2022-07-31T12:32:11.091Z,6.10
2022-07-31T12:33:09.752Z,5.80
2022-07-31T12:34:06.355Z,5.90
2022-07-31T12:35:04.726Z,5.55
2022-07-31T12:36:12.147Z,5.28
2022-07-31T12:37:12.632Z,5.97
2022-07-31T12:38:30.209Z,6.57
2022-07-31T12:39:54.350Z,5.47
2022-07-31T12:40:44.262Z,6.15
2022-07-31T12:41:43.818Z,4.60
2022-07-31T12:42:41.856Z,4.85
2022-07-31T12:43:38.857Z,4.63
2022-07-31T12:44:51.033Z,4.55
2022-07-31T12:45:47.663Z,4.72
2022-07-31T12:46:44.258Z,5.10
2022-07-31T12:47:40.964Z,5.35
2022-07-31T12:48:41.099Z,5.50
2022-07-31T12:49:41.087Z,5.70
2022-07-31T12:50:37.760Z,5.55
2022-07-31T12:51:45.852Z,6.70
2022-07-31T12:52:43.572Z,5.15
2022-07-31T12:53:40.216Z,5.22
2022-07-31T12:54:39.490Z,6.82
2022-07-31T12:55:36.226Z,5.10
2022-07-31T12:56:37.620Z,6.22
2022-07-31T12:57:34.319Z,5.38
2022-07-31T12:58:30.994Z,4.93
2022-07-31T12:59:27.579Z,6.47
2022-07-31T13:00:26.801Z,5.13
2022-07-31T13:01:23.438Z,4.97
2022-07-31T13:02:20.122Z,6.32
2022-07-31T13:03:16.763Z,5.68
2022-07-31T13:04:18.722Z,6.50
2022-07-31T13:05:16.284Z,5.00